Terminal Aerodrome Forecast
Issued by NWS Kansas City/Pleasant Hill, MO

Home | Current Version | Previous Version | Text Only | Print | Product List | Glossary On
Versions: 1 2 3 4 5 6 7 8 9 10 11 12 13 14 15 16 17 18 19
000
FTUS43 KEAX 281737
TAFMCI
TAF
KMCI 281737Z 2818/2918 18017G24KT P6SM FEW040 SCT120
     FM282300 18010KT P6SM VCTS BKN040CB
     FM290400 22006KT P6SM VCSH BKN100
     FM290600 22006KT P6SM BKN120
     FM291000 32008KT P6SM BKN020=

USA.gov is the U.S. government's official web portal to all federal, state and local government web resources and services.